createdAt,value
2023-05-19T00:00:16.901Z,99.90
2023-05-19T00:02:44.198Z,99.90
2023-05-19T00:05:12.841Z,99.90
2023-05-19T00:07:39.711Z,99.90
2023-05-19T00:10:06.680Z,99.90
2023-05-19T00:12:33.493Z,99.90
2023-05-19T00:15:00.383Z,99.90
2023-05-19T00:17:27.118Z,99.90
2023-05-19T00:19:54.787Z,99.90
2023-05-19T00:22:21.548Z,99.90
2023-05-19T00:24:48.997Z,99.90
2023-05-19T00:27:15.683Z,99.90
2023-05-19T00:29:42.329Z,99.90
2023-05-19T00:32:09.304Z,99.90
2023-05-19T00:34:36.213Z,99.90
2023-05-19T00:37:03.068Z,99.90
2023-05-19T00:39:29.775Z,99.90
2023-05-19T00:41:56.494Z,99.90
2023-05-19T00:44:23.188Z,99.90
2023-05-19T00:46:50.267Z,99.90
2023-05-19T00:49:17.034Z,99.90
2023-05-19T00:51:43.951Z,99.90
2023-05-19T00:54:10.713Z,99.90
2023-05-19T00:56:37.821Z,99.90
2023-05-19T00:59:04.795Z,99.90
2023-05-19T01:01:32.308Z,99.90
2023-05-19T01:04:00.048Z,99.90
2023-05-19T01:06:27.834Z,99.90
2023-05-19T01:08:54.548Z,99.90
2023-05-19T01:11:21.634Z,99.90
2023-05-19T01:13:48.536Z,99.90
2023-05-19T01:16:37.405Z,99.90
2023-05-19T01:19:13.195Z,99.90
2023-05-19T01:21:58.791Z,99.90
2023-05-19T01:24:54.931Z,99.90
2023-05-19T01:27:40.490Z,99.90
2023-05-19T01:30:27.421Z,99.90
2023-05-19T01:32:56.489Z,99.90
2023-05-19T01:35:24.999Z,99.90
2023-05-19T01:37:54.342Z,99.90
2023-05-19T01:40:23.661Z,99.90
2023-05-19T01:42:52.491Z,99.90
2023-05-19T01:45:19.958Z,99.90
2023-05-19T01:47:48.510Z,99.90
2023-05-19T01:50:15.413Z,99.90
2023-05-19T01:52:43.234Z,99.90
2023-05-19T01:55:10.149Z,99.90
2023-05-19T01:57:43.619Z,99.90
2023-05-19T02:00:10.641Z,99.90
2023-05-19T02:02:56.587Z,99.90
2023-05-19T02:05:31.300Z,99.90
2023-05-19T02:08:01.986Z,99.90
2023-05-19T02:10:32.882Z,99.90
2023-05-19T02:13:04.616Z,99.90
2023-05-19T02:15:38.666Z,99.90
2023-05-19T02:18:06.179Z,99.90
2023-05-19T02:20:33.045Z,99.90
2023-05-19T02:23:00.062Z,99.90
2023-05-19T02:28:10.585Z,99.90
2023-05-19T02:30:37.689Z,99.90
2023-05-19T02:33:06.613Z,99.90
2023-05-19T02:35:34.286Z,99.90
2023-05-19T02:38:02.131Z,99.90
2023-05-19T02:40:29.301Z,99.90
2023-05-19T02:42:56.463Z,99.90
2023-05-19T02:45:23.662Z,99.90
2023-05-19T02:47:50.622Z,99.90
2023-05-19T02:50:17.677Z,99.90
2023-05-19T02:52:44.428Z,99.90
2023-05-19T02:55:16.876Z,99.90
2023-05-19T02:57:44.016Z,99.90
2023-05-19T03:00:11.351Z,99.90
2023-05-19T03:02:38.432Z,99.90
2023-05-19T03:05:05.685Z,99.90
2023-05-19T03:07:33.764Z,99.90
2023-05-19T03:10:03.814Z,99.90
2023-05-19T03:12:31.574Z,99.90
2023-05-19T03:14:59.954Z,99.90
2023-05-19T03:17:27.699Z,99.90
2023-05-19T03:19:54.583Z,99.90
2023-05-19T03:22:21.331Z,99.90
2023-05-19T03:24:51.043Z,99.90
2023-05-19T03:27:18.101Z,99.90
2023-05-19T03:29:45.146Z,99.90
2023-05-19T03:32:12.006Z,99.90
2023-05-19T03:34:38.954Z,99.90
2023-05-19T03:37:06.481Z,99.90
2023-05-19T03:39:34.732Z,99.90
2023-05-19T03:42:01.749Z,99.90
2023-05-19T03:44:28.631Z,99.90
2023-05-19T03:46:55.574Z,99.90
2023-05-19T03:49:41.165Z,99.90
2023-05-19T03:52:26.883Z,99.90
2023-05-19T03:55:00.345Z,99.90
2023-05-19T03:57:29.308Z,99.90
2023-05-19T03:59:56.038Z,99.90
2023-05-19T04:02:23.030Z,99.90
2023-05-19T04:04:51.223Z,99.90
2023-05-19T04:07:18.195Z,99.90
2023-05-19T04:09:45.608Z,99.90
2023-05-19T04:12:12.652Z,99.90
2023-05-19T04:14:39.495Z,99.90
2023-05-19T04:17:06.512Z,99.90
2023-05-19T04:19:33.698Z,99.90
2023-05-19T04:22:02.288Z,99.90
2023-05-19T04:24:29.544Z,99.90
2023-05-19T04:26:56.687Z,99.90
2023-05-19T04:29:24.334Z,99.90
2023-05-19T04:31:51.259Z,99.90
2023-05-19T04:34:21.203Z,99.90
2023-05-19T04:36:48.590Z,99.90
2023-05-19T04:39:18.650Z,99.90
2023-05-19T04:41:46.399Z,99.90
2023-05-19T04:44:18.136Z,99.90
2023-05-19T04:46:47.270Z,99.90
2023-05-19T04:49:14.481Z,99.90
2023-05-19T04:52:07.379Z,99.90
2023-05-19T04:54:35.473Z,99.90
2023-05-19T04:57:02.458Z,99.90
2023-05-19T04:59:31.939Z,99.90
2023-05-19T05:01:59.478Z,99.90
2023-05-19T05:04:29.158Z,99.90
2023-05-19T05:06:55.971Z,99.90
2023-05-19T05:09:24.166Z,99.90
2023-05-19T05:11:51.587Z,99.90
2023-05-19T05:14:19.456Z,99.90
2023-05-19T05:16:47.532Z,99.90
2023-05-19T05:19:22.291Z,99.90
2023-05-19T05:21:49.529Z,99.90
2023-05-19T05:24:17.134Z,99.90
2023-05-19T05:26:49.894Z,99.90
2023-05-19T05:29:16.691Z,99.90
2023-05-19T05:31:43.610Z,99.90
2023-05-19T05:34:11.174Z,99.90
2023-05-19T05:36:38.072Z,99.90
2023-05-19T05:39:05.626Z,99.90
2023-05-19T05:41:35.541Z,99.90
2023-05-19T05:44:08.541Z,99.90
2023-05-19T05:46:36.216Z,99.90
2023-05-19T05:49:04.133Z,99.90
2023-05-19T05:51:32.912Z,99.90
2023-05-19T05:54:01.047Z,99.90
2023-05-19T05:56:36.960Z,99.90
2023-05-19T05:59:11.191Z,99.90
2023-05-19T06:01:38.055Z,99.90
2023-05-19T06:04:08.177Z,99.90
2023-05-19T06:06:37.994Z,99.90
2023-05-19T06:09:06.027Z,99.90
2023-05-19T06:11:32.868Z,99.90
2023-05-19T06:14:00.525Z,99.90
2023-05-19T06:16:45.579Z,99.90
2023-05-19T06:19:13.645Z,99.90
2023-05-19T06:21:42.845Z,99.90
2023-05-19T06:24:09.835Z,99.90
2023-05-19T06:26:36.653Z,99.90
2023-05-19T06:29:03.696Z,99.90
2023-05-19T06:31:33.413Z,99.90
2023-05-19T06:34:12.223Z,99.90
2023-05-19T06:36:41.305Z,99.90
2023-05-19T06:39:08.605Z,99.90
2023-05-19T06:41:36.099Z,99.90
2023-05-19T06:44:04.478Z,99.90
2023-05-19T06:46:33.623Z,99.90
2023-05-19T06:49:01.130Z,99.90
2023-05-19T06:51:31.724Z,99.90
2023-05-19T06:53:59.984Z,99.90
2023-05-19T06:56:27.679Z,99.90
2023-05-19T06:58:55.963Z,99.90
2023-05-19T07:01:27.706Z,99.90
2023-05-19T07:03:56.103Z,99.90
2023-05-19T07:06:23.158Z,99.90
2023-05-19T07:08:51.350Z,99.90
2023-05-19T07:11:21.120Z,99.90
2023-05-19T07:13:48.750Z,99.90
2023-05-19T07:16:22.132Z,99.90
2023-05-19T07:18:49.032Z,99.90
2023-05-19T07:21:16.469Z,99.90
2023-05-19T07:23:43.354Z,99.90
2023-05-19T07:26:11.668Z,99.90
2023-05-19T07:28:40.796Z,99.90
2023-05-19T07:31:08.536Z,99.90
2023-05-19T07:33:35.363Z,99.90
2023-05-19T07:36:02.402Z,99.90
2023-05-19T07:38:31.436Z,99.90
2023-05-19T07:40:58.295Z,99.90
2023-05-19T07:43:25.056Z,99.90
2023-05-19T07:45:53.471Z,99.90
2023-05-19T07:48:22.416Z,99.90
2023-05-19T07:50:49.597Z,99.90
2023-05-19T07:53:16.626Z,99.90
2023-05-19T07:55:43.526Z,99.90
2023-05-19T07:58:10.464Z,99.90
2023-05-19T08:00:37.679Z,99.90
2023-05-19T08:03:04.678Z,99.90
2023-05-19T08:05:31.573Z,99.90
2023-05-19T08:07:58.459Z,99.90
2023-05-19T08:10:25.299Z,99.90
2023-05-19T08:12:52.082Z,99.90
2023-05-19T08:15:19.621Z,99.90
2023-05-19T08:17:46.422Z,99.90
2023-05-19T08:20:13.611Z,99.60
2023-05-19T08:22:40.461Z,98.90
2023-05-19T08:25:07.701Z,97.20
2023-05-19T08:27:34.654Z,95.60
2023-05-19T08:30:01.648Z,94.50
2023-05-19T08:32:28.605Z,93.50
2023-05-19T08:34:55.624Z,92.80
2023-05-19T08:37:22.525Z,92.00
2023-05-19T08:39:49.526Z,90.50
2023-05-19T08:42:16.486Z,90.40
2023-05-19T08:44:44.039Z,88.40
2023-05-19T08:47:14.330Z,85.10
2023-05-19T08:49:46.437Z,84.70
2023-05-19T08:52:23.348Z,86.20
2023-05-19T08:54:53.211Z,85.20
2023-05-19T08:57:22.876Z,84.50
2023-05-19T08:59:52.130Z,85.50
2023-05-19T09:02:19.563Z,85.50
2023-05-19T09:04:48.027Z,83.20
2023-05-19T09:07:15.714Z,82.50
2023-05-19T09:09:43.966Z,79.40
2023-05-19T09:12:11.749Z,77.10
2023-05-19T09:14:38.987Z,78.50
2023-05-19T09:17:06.655Z,78.00
2023-05-19T09:19:33.748Z,77.50
2023-05-19T09:22:03.373Z,76.50
2023-05-19T09:24:30.527Z,76.50
2023-05-19T09:26:58.516Z,74.80
2023-05-19T09:29:26.764Z,74.20
2023-05-19T09:32:00.493Z,75.10
2023-05-19T09:34:27.923Z,74.40
2023-05-19T09:36:54.790Z,74.70
2023-05-19T09:39:23.475Z,74.10
2023-05-19T09:41:54.576Z,72.90
2023-05-19T09:44:21.310Z,72.20
2023-05-19T09:46:49.814Z,72.30
2023-05-19T09:49:25.023Z,72.30
2023-05-19T09:51:55.001Z,70.30
2023-05-19T09:54:23.999Z,69.20
2023-05-19T09:57:07.771Z,67.90
2023-05-19T09:59:35.957Z,67.70
2023-05-19T10:02:03.403Z,68.00
2023-05-19T10:04:31.135Z,68.00
2023-05-19T10:07:07.605Z,68.60
2023-05-19T10:09:36.422Z,68.30
2023-05-19T10:12:04.198Z,67.60
2023-05-19T10:14:31.071Z,67.70
2023-05-19T10:16:59.138Z,68.40
2023-05-19T10:19:29.187Z,66.20
2023-05-19T10:21:56.531Z,66.10
2023-05-19T10:24:23.387Z,67.20
2023-05-19T10:29:41.012Z,69.60
2023-05-19T10:32:15.710Z,66.80
2023-05-19T10:35:11.589Z,66.20
2023-05-19T10:37:55.125Z,65.60
2023-05-19T10:40:28.786Z,66.10
2023-05-19T10:43:14.158Z,66.50
2023-05-19T10:45:48.168Z,66.40
2023-05-19T10:48:16.739Z,67.70
2023-05-19T10:50:45.977Z,68.70
2023-05-19T10:53:18.456Z,68.10
2023-05-19T10:55:52.740Z,68.40
2023-05-19T10:58:44.358Z,68.10
2023-05-19T11:01:18.384Z,67.90
2023-05-19T11:03:53.786Z,68.90
2023-05-19T11:06:28.645Z,67.40
2023-05-19T11:09:00.935Z,67.30
2023-05-19T11:11:47.704Z,67.10
2023-05-19T11:14:17.681Z,67.30
2023-05-19T11:16:47.997Z,66.30
2023-05-19T11:19:28.480Z,64.30
2023-05-19T11:21:56.502Z,62.50
2023-05-19T11:24:36.357Z,63.20
2023-05-19T11:27:31.152Z,62.70
2023-05-19T11:30:00.538Z,63.70
2023-05-19T11:32:29.786Z,63.10
2023-05-19T11:34:57.756Z,63.40
2023-05-19T11:37:24.895Z,61.90
2023-05-19T11:39:52.915Z,62.60
2023-05-19T11:42:20.008Z,62.70
2023-05-19T11:44:47.057Z,61.00
2023-05-19T11:47:14.870Z,60.60
2023-05-19T11:50:00.238Z,60.90
2023-05-19T11:52:28.239Z,61.00
2023-05-19T11:54:55.097Z,62.40
2023-05-19T11:57:22.466Z,63.30
2023-05-19T11:59:49.854Z,61.30
2023-05-19T12:02:21.854Z,61.80
2023-05-19T12:04:52.035Z,60.10
2023-05-19T12:07:22.813Z,60.80
2023-05-19T12:09:52.046Z,59.80
2023-05-19T12:12:22.966Z,60.90
2023-05-19T12:14:51.680Z,61.40
2023-05-19T12:17:20.088Z,60.80
2023-05-19T12:19:50.540Z,60.70
2023-05-19T12:22:18.437Z,61.70
2023-05-19T12:24:46.975Z,62.70
2023-05-19T12:27:23.800Z,63.90
2023-05-19T12:29:52.282Z,65.80
2023-05-19T12:32:19.662Z,66.40
2023-05-19T12:34:46.528Z,68.20
2023-05-19T12:37:13.974Z,67.40
2023-05-19T12:39:42.784Z,68.70
2023-05-19T12:42:11.073Z,67.50
2023-05-19T12:44:39.332Z,66.30
2023-05-19T12:47:07.093Z,65.80
2023-05-19T12:49:34.546Z,65.70
2023-05-19T12:52:06.086Z,64.90
2023-05-19T12:54:36.278Z,64.20
2023-05-19T12:57:05.746Z,63.60
2023-05-19T12:59:38.783Z,62.30
2023-05-19T13:02:06.783Z,62.90
2023-05-19T13:04:33.612Z,63.80
2023-05-19T13:07:00.595Z,64.20
2023-05-19T13:09:27.893Z,65.80
2023-05-19T13:11:54.755Z,66.80
2023-05-19T13:14:22.028Z,65.80
2023-05-19T13:16:48.938Z,64.00
2023-05-19T13:19:25.401Z,63.00
2023-05-19T13:21:52.974Z,63.80
2023-05-19T13:24:19.922Z,64.30
2023-05-19T13:26:48.060Z,65.30
2023-05-19T13:29:15.175Z,64.50
2023-05-19T13:31:42.100Z,63.50
2023-05-19T13:34:09.008Z,63.20
2023-05-19T13:36:36.662Z,63.50
2023-05-19T13:39:03.686Z,64.50
2023-05-19T13:41:30.593Z,65.10
2023-05-19T13:43:59.505Z,66.00
2023-05-19T13:46:36.540Z,67.10
2023-05-19T13:49:11.951Z,68.10
2023-05-19T13:51:46.159Z,68.20
2023-05-19T13:54:13.033Z,69.30
2023-05-19T13:56:40.070Z,69.60
2023-05-19T13:59:07.139Z,70.50
2023-05-19T14:01:34.093Z,70.90
2023-05-19T14:04:01.291Z,70.90
2023-05-19T14:06:28.378Z,70.40
2023-05-19T14:08:55.280Z,71.00
2023-05-19T14:11:22.600Z,71.10
2023-05-19T14:13:53.054Z,71.30
2023-05-19T14:16:23.074Z,69.20
2023-05-19T14:18:50.027Z,67.80
2023-05-19T14:21:17.004Z,66.50
2023-05-19T14:23:43.901Z,66.10
2023-05-19T14:26:10.798Z,65.50
2023-05-19T14:28:37.823Z,65.10
2023-05-19T14:31:04.766Z,65.90
2023-05-19T14:33:35.192Z,65.90
2023-05-19T14:36:02.384Z,66.40
2023-05-19T14:38:29.652Z,67.20
2023-05-19T14:40:56.927Z,68.80
2023-05-19T14:43:23.756Z,69.50
2023-05-19T14:45:50.623Z,68.90
2023-05-19T14:48:17.969Z,68.40
2023-05-19T14:50:46.325Z,68.40
2023-05-19T14:53:13.197Z,68.90
2023-05-19T14:55:40.092Z,69.00
2023-05-19T14:58:15.854Z,69.90
2023-05-19T15:00:53.883Z,70.00
2023-05-19T15:03:20.798Z,70.20
2023-05-19T15:05:49.350Z,70.40
2023-05-19T15:08:16.154Z,70.20
2023-05-19T15:10:42.994Z,71.00
2023-05-19T15:13:09.967Z,71.40
2023-05-19T15:15:36.729Z,71.80
2023-05-19T15:18:03.594Z,70.60
2023-05-19T15:20:30.490Z,69.10
2023-05-19T15:22:57.317Z,70.20
2023-05-19T15:25:24.191Z,70.20
2023-05-19T15:27:51.254Z,70.00
2023-05-19T15:30:18.026Z,70.70
2023-05-19T15:32:44.855Z,71.70
2023-05-19T15:35:11.725Z,71.30
2023-05-19T15:37:38.507Z,72.40
2023-05-19T15:40:06.229Z,73.00
2023-05-19T15:42:33.161Z,73.00
2023-05-19T15:45:00.459Z,73.40
2023-05-19T15:47:27.391Z,73.90
2023-05-19T15:49:54.235Z,73.80
2023-05-19T15:52:21.228Z,73.70
2023-05-19T15:54:48.727Z,74.00
2023-05-19T15:57:15.537Z,73.80
2023-05-19T15:59:42.416Z,74.00
2023-05-19T16:02:09.485Z,74.40
2023-05-19T16:04:37.684Z,74.10
2023-05-19T16:07:04.616Z,73.80
2023-05-19T16:09:31.442Z,74.30
2023-05-19T16:13:01.598Z,73.80
2023-05-19T16:14:49.328Z,74.50
2023-05-19T16:17:16.180Z,74.30
2023-05-19T16:19:42.968Z,74.70
2023-05-19T16:22:09.941Z,75.30
2023-05-19T16:24:36.791Z,75.30
2023-05-19T16:27:04.892Z,75.00
2023-05-19T16:29:31.813Z,74.70
2023-05-19T16:31:58.671Z,74.30
2023-05-19T16:34:27.062Z,74.20
2023-05-19T16:36:54.712Z,74.90
2023-05-19T16:39:21.612Z,75.10
2023-05-19T16:41:48.410Z,75.00
2023-05-19T16:44:15.869Z,74.90
2023-05-19T16:46:42.736Z,74.50
2023-05-19T16:49:09.628Z,74.00
2023-05-19T16:51:36.579Z,74.00
2023-05-19T16:54:04.202Z,74.70
2023-05-19T16:56:31.253Z,74.80
2023-05-19T16:58:58.146Z,75.30
2023-05-19T17:01:24.940Z,75.20
2023-05-19T17:03:51.709Z,74.60
2023-05-19T17:06:18.841Z,74.80
2023-05-19T17:08:45.943Z,75.10
2023-05-19T17:11:15.730Z,75.60
2023-05-19T17:13:43.848Z,75.60
2023-05-19T17:16:11.190Z,75.00
2023-05-19T17:18:38.197Z,74.40
2023-05-19T17:21:05.380Z,74.90
2023-05-19T17:23:32.937Z,74.20
2023-05-19T17:25:59.707Z,74.40
2023-05-19T17:28:26.688Z,74.50
2023-05-19T17:30:53.708Z,74.70
2023-05-19T17:33:20.876Z,74.90
2023-05-19T17:35:47.866Z,75.30
2023-05-19T17:38:14.669Z,75.70
2023-05-19T17:40:42.152Z,75.90
2023-05-19T17:43:09.299Z,76.40
2023-05-19T17:45:36.152Z,76.80
2023-05-19T17:48:03.155Z,77.20
2023-05-19T17:50:30.079Z,77.50
2023-05-19T17:52:57.131Z,77.20
2023-05-19T17:55:29.729Z,76.80
2023-05-19T17:57:57.353Z,77.00
2023-05-19T18:00:25.180Z,76.80
2023-05-19T18:02:52.825Z,76.00
2023-05-19T18:05:20.530Z,76.10
2023-05-19T18:07:48.433Z,75.90
2023-05-19T18:10:16.234Z,75.50
2023-05-19T18:12:43.108Z,75.80
2023-05-19T18:15:10.286Z,76.00
2023-05-19T18:17:37.439Z,76.10
2023-05-19T18:20:04.611Z,76.50
2023-05-19T18:22:31.509Z,76.70
2023-05-19T18:24:58.398Z,77.00
2023-05-19T18:27:25.252Z,77.00
2023-05-19T18:29:52.237Z,77.70
2023-05-19T18:32:19.071Z,77.50
2023-05-19T18:34:46.241Z,77.30
2023-05-19T18:37:13.164Z,77.20
2023-05-19T18:39:39.995Z,77.40
2023-05-19T18:42:06.962Z,77.50
2023-05-19T18:44:36.606Z,77.20
2023-05-19T18:47:03.560Z,77.60
2023-05-19T18:49:30.405Z,78.30
2023-05-19T18:51:57.269Z,77.90
2023-05-19T18:54:24.776Z,77.80
2023-05-19T18:56:51.664Z,77.90
2023-05-19T18:59:18.573Z,78.00
2023-05-19T19:01:45.654Z,78.00
2023-05-19T19:04:14.888Z,78.20
2023-05-19T19:06:42.034Z,78.20
2023-05-19T19:09:10.348Z,78.30
2023-05-19T19:11:37.223Z,78.40
2023-05-19T19:14:04.348Z,78.90
2023-05-19T19:16:31.484Z,78.90
2023-05-19T19:18:58.847Z,79.10
2023-05-19T19:21:25.996Z,79.00
2023-05-19T19:23:56.964Z,79.00
2023-05-19T19:26:28.887Z,79.20
2023-05-19T19:28:56.801Z,79.30
2023-05-19T19:31:25.834Z,79.50
2023-05-19T19:33:52.883Z,79.30
2023-05-19T19:36:19.925Z,79.80
2023-05-19T19:38:46.913Z,80.00
2023-05-19T19:41:13.768Z,80.00
2023-05-19T19:43:40.796Z,80.10
2023-05-19T19:46:09.128Z,80.20
2023-05-19T19:48:36.296Z,80.20
2023-05-19T19:51:03.310Z,80.50
2023-05-19T19:53:30.125Z,80.80
2023-05-19T19:56:00.295Z,80.60
2023-05-19T19:58:28.558Z,80.80
2023-05-19T20:01:03.716Z,80.90
2023-05-19T20:03:31.690Z,80.80
2023-05-19T20:05:58.687Z,80.70
2023-05-19T20:08:26.520Z,80.90
2023-05-19T20:10:54.018Z,81.20
2023-05-19T20:13:21.098Z,81.10
2023-05-19T20:15:48.341Z,81.30
2023-05-19T20:18:15.771Z,81.50
2023-05-19T20:20:43.114Z,81.60
2023-05-19T20:23:10.029Z,81.80
2023-05-19T20:25:54.391Z,82.00
2023-05-19T20:28:26.208Z,82.20
2023-05-19T20:30:53.056Z,82.30
2023-05-19T20:33:19.743Z,82.40
2023-05-19T20:35:46.552Z,82.70
2023-05-19T20:38:13.387Z,82.90
2023-05-19T20:40:48.127Z,83.20
2023-05-19T20:43:15.193Z,83.50
2023-05-19T20:45:45.583Z,83.70
2023-05-19T20:48:12.625Z,84.10
2023-05-19T20:50:39.876Z,84.20
2023-05-19T20:53:07.379Z,84.30
2023-05-19T20:55:36.346Z,84.60
2023-05-19T20:58:03.289Z,85.00
2023-05-19T21:00:30.758Z,85.30
2023-05-19T21:02:57.910Z,85.50
2023-05-19T21:05:25.033Z,85.80
2023-05-19T21:07:51.821Z,86.30
2023-05-19T21:10:18.609Z,86.30
2023-05-19T21:12:46.417Z,86.80
2023-05-19T21:15:13.474Z,86.90
2023-05-19T21:17:40.686Z,87.40
2023-05-19T21:20:08.361Z,87.60
2023-05-19T21:22:36.009Z,87.90
2023-05-19T21:25:02.902Z,88.20
2023-05-19T21:27:32.141Z,88.40
2023-05-19T21:29:59.586Z,88.40
2023-05-19T21:32:27.315Z,88.90
2023-05-19T21:34:54.036Z,89.00
2023-05-19T21:37:21.580Z,89.20
2023-05-19T21:39:48.899Z,89.30
2023-05-19T21:42:15.714Z,89.90
2023-05-19T21:44:42.403Z,90.00
2023-05-19T21:47:09.304Z,90.10
2023-05-19T21:49:36.085Z,90.20
2023-05-19T21:52:02.804Z,90.40
2023-05-19T21:54:29.689Z,90.50
2023-05-19T21:56:56.373Z,90.70
2023-05-19T21:59:24.767Z,90.80
2023-05-19T22:01:51.891Z,91.00
2023-05-19T22:04:18.971Z,91.10
2023-05-19T22:06:46.105Z,91.20
2023-05-19T22:09:13.332Z,91.30
2023-05-19T22:11:40.186Z,91.50
2023-05-19T22:14:07.070Z,91.70
2023-05-19T22:16:33.851Z,91.80
2023-05-19T22:19:00.882Z,91.90
2023-05-19T22:21:27.905Z,92.10
2023-05-19T22:23:54.692Z,92.30
2023-05-19T22:26:21.978Z,92.50
2023-05-19T22:28:49.749Z,92.60
2023-05-19T22:31:16.810Z,92.80
2023-05-19T22:33:43.600Z,92.90
2023-05-19T22:36:11.104Z,93.30
2023-05-19T22:38:37.993Z,93.40
2023-05-19T22:41:05.078Z,93.60
2023-05-19T22:43:32.055Z,93.80
2023-05-19T22:45:59.015Z,94.00
2023-05-19T22:48:26.068Z,94.20
2023-05-19T22:50:52.992Z,94.50
2023-05-19T22:53:19.847Z,94.70
2023-05-19T22:55:46.677Z,94.80
2023-05-19T22:58:13.475Z,95.00
2023-05-19T23:00:40.407Z,95.20
2023-05-19T23:03:07.277Z,95.50
2023-05-19T23:05:34.770Z,95.80
2023-05-19T23:08:01.851Z,95.80
2023-05-19T23:10:28.749Z,95.90
2023-05-19T23:12:55.529Z,96.00
2023-05-19T23:15:22.366Z,96.10
2023-05-19T23:17:49.161Z,96.40
2023-05-19T23:20:16.022Z,96.60
2023-05-19T23:22:42.760Z,96.90
2023-05-19T23:25:09.737Z,97.10
2023-05-19T23:27:36.620Z,97.20
2023-05-19T23:30:03.992Z,97.30
2023-05-19T23:32:30.889Z,97.50
2023-05-19T23:34:57.760Z,97.70
2023-05-19T23:37:24.553Z,98.00
2023-05-19T23:39:51.511Z,98.20
2023-05-19T23:42:18.303Z,98.50
2023-05-19T23:44:45.145Z,98.80
2023-05-19T23:47:11.918Z,99.10
2023-05-19T23:49:38.739Z,99.40
2023-05-19T23:52:05.899Z,99.70
2023-05-19T23:54:32.624Z,99.90
2023-05-19T23:57:00.635Z,99.90
2023-05-19T23:59:27.466Z,99.90
